Bow Heron — DYTN — position and weather

sailwx.info

Track history (hours):
 
Tides and Currents Weather Stations Pressure Air Temp Water Temp Dewpoint Dewpoint Depression Visibility Wind Speed Wind Dir Waves Ship Positions

Bow Heron

Last reported at 2017-Oct-09 13:45 UTC. Time now 2017-Oct-19 12:56 UTC.
Position N 29°23' W 094°53'.
Warning: this ship's position is 9 days out of date.

Length 174 m; draft 7.3 m.

Type: Ship (hazmat cat C). MMSI: 548779000.

Date/timePositionNaut miles runAvg speedWind from/ knotsBaromVisibWave heightAir tempDewpointWater temp
2017-Oct-09 13:45N 29°23' W 094°53'4 3.5
2017-Oct-09 12:45N 29°23' W 094°49'412.3
2017-Oct-09 12:27N 29°26' W 094°50'613.1
2017-Oct-09 12:00N 29°31' W 094°53'612.6
2017-Oct-09 11:30N 29°37' W 094°57'511.0
2017-Oct-09 11:01N 29°42' W 094°60'4 7.6
2017-Oct-09 10:30N 29°44' W 095°03'3 5.6
2017-Oct-09 10:00N 29°44' W 095°06'3 6.2
2017-Oct-09 09:31N 29°45' W 095°10'3 5.7
2017-Oct-09 08:59N 29°43' W 095°13'3 5.2
2017-Oct-09 08:30N 29°44' W 095°16'1 0.1
2017-Oct-08 21:39N 29°45' W 095°17'0 0.0
2017-Oct-08 21:09N 29°45' W 095°17'0 0.0
2017-Oct-08 20:51N 29°45' W 095°17'0 0.0
2017-Oct-08 14:51N 29°45' W 095°17'0 0.0
2017-Oct-08 14:27N 29°45' W 095°17'0 0.0
2017-Oct-08 13:03N 29°45' W 095°17'0 0.0
2017-Oct-08 10:03N 29°45' W 095°17'0 0.0
2017-Oct-08 09:45N 29°45' W 095°17'0 0.0
2017-Oct-08 09:27N 29°45' W 095°17'0 0.0
2017-Oct-08 08:51N 29°45' W 095°17'0 0.0
2017-Oct-08 08:21N 29°45' W 095°17'0 0.0
2017-Oct-08 07:57N 29°45' W 095°17'0 0.0
2017-Oct-08 07:27N 29°45' W 095°17'0 0.0
2017-Oct-08 06:45N 29°45' W 095°17'0 0.0
2017-Oct-08 06:09N 29°45' W 095°17'0 0.0
2017-Oct-08 05:57N 29°45' W 095°17'0 0.0
2017-Oct-08 05:21N 29°45' W 095°17'0 0.0
2017-Oct-08 04:51N 29°45' W 095°17'0 0.0
2017-Oct-08 04:27N 29°45' W 095°17'0 0.0
2017-Oct-08 03:30N 29°45' W 095°17'0 0.0
2017-Oct-08 02:51N 29°45' W 095°17'0 0.0
2017-Oct-08 02:27N 29°45' W 095°17'0 0.0
2017-Oct-08 01:51N 29°45' W 095°17'0 0.0
2017-Oct-08 01:27N 29°45' W 095°17'0 0.0
2017-Oct-07 23:57N 29°45' W 095°17'0 0.0
2017-Oct-07 23:12N 29°45' W 095°17'0 0.0
2017-Oct-07 21:57N 29°45' W 095°17'0 0.0
2017-Oct-07 21:12N 29°45' W 095°17'0 0.0
2017-Oct-07 19:51N 29°45' W 095°17'0 0.0
2017-Oct-07 19:27N 29°45' W 095°17'0 0.0
2017-Oct-07 18:51N 29°45' W 095°17'0 0.0
2017-Oct-07 18:30N 29°45' W 095°17'0 0.0
2017-Oct-07 17:54N 29°45' W 095°17'0 0.0
2017-Oct-07 17:30N 29°45' W 095°17'0 0.0
2017-Oct-07 16:57N 29°45' W 095°17'0 0.0
2017-Oct-07 16:27N 29°45' W 095°17'0 0.0
2017-Oct-07 15:57N 29°45' W 095°17'0 0.0
2017-Oct-07 15:21N 29°45' W 095°17'0 0.0
2017-Oct-07 14:57N 29°45' W 095°17'0 0.0
2017-Oct-07 14:27N 29°45' W 095°17'0 0.0
2017-Oct-07 13:57N 29°45' W 095°17'0 0.0
2017-Oct-07 13:21N 29°45' W 095°17'0 0.0
2017-Oct-07 12:54N 29°45' W 095°17'0 0.0
2017-Oct-07 12:27N 29°45' W 095°17'0 0.0
2017-Oct-07 11:45N 29°45' W 095°17'0 0.0
2017-Oct-07 11:30N 29°45' W 095°17'0 0.0
2017-Oct-07 10:54N 29°45' W 095°17'0 0.5
2017-Oct-07 10:31N 29°45' W 095°17'0 1.0
2017-Oct-07 10:00N 29°44' W 095°17'2 3.9
2017-Oct-07 09:30N 29°43' W 095°15'2 3.8
2017-Oct-07 09:00N 29°44' W 095°13'3 5.0
2017-Oct-07 08:30N 29°45' W 095°10'3 5.5
2017-Oct-07 08:00N 29°44' W 095°07'3 5.8
2017-Oct-07 07:31N 29°46' W 095°04'3 6.3
2017-Oct-07 07:00N 29°44' W 095°01'4 7.6
2017-Oct-07 06:30N 29°41' W 094°59'611.4
2017-Oct-07 06:00N 29°35' W 094°56'713.6
2017-Oct-07 05:30N 29°30' W 094°52'713.0
2017-Oct-07 05:00N 29°24' W 094°49'  
2017-Oct-02 09:51N 29°23' W 094°53'2 6.9
2017-Oct-02 09:30N 29°22' W 094°50'2 0.1
2017-Oct-01 12:51N 29°24' W 094°49'512.8
2017-Oct-01 12:29N 29°28' W 094°51'612.9
2017-Oct-01 12:00N 29°34' W 094°55'612.6
2017-Oct-01 11:30N 29°39' W 094°58'5 9.8
2017-Oct-01 11:00N 29°43' W 095°01'4 8.0
2017-Oct-01 10:30N 29°46' W 095°05'28 0.7
2017-Sep-29 20:32N 29°22' W 094°48'114.8
2017-Sep-29 20:29N 29°23' W 094°49'714.2
2017-Sep-29 20:01N 29°29' W 094°52'713.5
2017-Sep-29 19:30N 29°35' W 094°56'612.5
2017-Sep-29 19:01N 29°40' W 094°59'4 8.6
2017-Sep-29 18:30N 29°44' W 095°02'3 7.1
2017-Sep-29 18:01N 29°46' W 095°05'  
Track history (hours):
 
Tides and Currents Weather Stations Pressure Air Temp Water Temp Dewpoint Dewpoint Depression Visibility Wind Speed Wind Dir Waves Ship Positions

Bow Heron

Last reported at 2017-Oct-09 13:45 UTC. Time now 2017-Oct-19 12:56 UTC.
Position N 29°23' W 094°53'.
Warning: this ship's position is 9 days out of date.

Length 174 m; draft 7.3 m.

Type: Ship (hazmat cat C). MMSI: 548779000.

Date/timePositionNaut miles runAvg speedWind from/ knotsBaromVisibWave heightAir tempDewpointWater temp
2017-Oct-09 13:45N 29°23' W 094°53'4 3.5
2017-Oct-09 12:45N 29°23' W 094°49'412.3
2017-Oct-09 12:27N 29°26' W 094°50'613.1
2017-Oct-09 12:00N 29°31' W 094°53'612.6
2017-Oct-09 11:30N 29°37' W 094°57'511.0
2017-Oct-09 11:01N 29°42' W 094°60'4 7.6
2017-Oct-09 10:30N 29°44' W 095°03'3 5.6
2017-Oct-09 10:00N 29°44' W 095°06'3 6.2
2017-Oct-09 09:31N 29°45' W 095°10'3 5.7
2017-Oct-09 08:59N 29°43' W 095°13'3 5.2
2017-Oct-09 08:30N 29°44' W 095°16'1 0.1
2017-Oct-08 21:39N 29°45' W 095°17'0 0.0
2017-Oct-08 21:09N 29°45' W 095°17'0 0.0
2017-Oct-08 20:51N 29°45' W 095°17'0 0.0
2017-Oct-08 14:51N 29°45' W 095°17'0 0.0
2017-Oct-08 14:27N 29°45' W 095°17'0 0.0
2017-Oct-08 13:03N 29°45' W 095°17'0 0.0
2017-Oct-08 10:03N 29°45' W 095°17'0 0.0
2017-Oct-08 09:45N 29°45' W 095°17'0 0.0
2017-Oct-08 09:27N 29°45' W 095°17'0 0.0
2017-Oct-08 08:51N 29°45' W 095°17'0 0.0
2017-Oct-08 08:21N 29°45' W 095°17'0 0.0
2017-Oct-08 07:57N 29°45' W 095°17'0 0.0
2017-Oct-08 07:27N 29°45' W 095°17'0 0.0
2017-Oct-08 06:45N 29°45' W 095°17'0 0.0
2017-Oct-08 06:09N 29°45' W 095°17'0 0.0
2017-Oct-08 05:57N 29°45' W 095°17'0 0.0
2017-Oct-08 05:21N 29°45' W 095°17'0 0.0
2017-Oct-08 04:51N 29°45' W 095°17'0 0.0
2017-Oct-08 04:27N 29°45' W 095°17'0 0.0
2017-Oct-08 03:30N 29°45' W 095°17'0 0.0
2017-Oct-08 02:51N 29°45' W 095°17'0 0.0
2017-Oct-08 02:27N 29°45' W 095°17'0 0.0
2017-Oct-08 01:51N 29°45' W 095°17'0 0.0
2017-Oct-08 01:27N 29°45' W 095°17'0 0.0
2017-Oct-07 23:57N 29°45' W 095°17'0 0.0
2017-Oct-07 23:12N 29°45' W 095°17'0 0.0
2017-Oct-07 21:57N 29°45' W 095°17'0 0.0
2017-Oct-07 21:12N 29°45' W 095°17'0 0.0
2017-Oct-07 19:51N 29°45' W 095°17'0 0.0
2017-Oct-07 19:27N 29°45' W 095°17'0 0.0
2017-Oct-07 18:51N 29°45' W 095°17'0 0.0
2017-Oct-07 18:30N 29°45' W 095°17'0 0.0
2017-Oct-07 17:54N 29°45' W 095°17'0 0.0
2017-Oct-07 17:30N 29°45' W 095°17'0 0.0
2017-Oct-07 16:57N 29°45' W 095°17'0 0.0
2017-Oct-07 16:27N 29°45' W 095°17'0 0.0
2017-Oct-07 15:57N 29°45' W 095°17'0 0.0
2017-Oct-07 15:21N 29°45' W 095°17'0 0.0
2017-Oct-07 14:57N 29°45' W 095°17'0 0.0
2017-Oct-07 14:27N 29°45' W 095°17'0 0.0
2017-Oct-07 13:57N 29°45' W 095°17'0 0.0
2017-Oct-07 13:21N 29°45' W 095°17'0 0.0
2017-Oct-07 12:54N 29°45' W 095°17'0 0.0
2017-Oct-07 12:27N 29°45' W 095°17'0 0.0
2017-Oct-07 11:45N 29°45' W 095°17'0 0.0
2017-Oct-07 11:30N 29°45' W 095°17'0 0.0
2017-Oct-07 10:54N 29°45' W 095°17'0 0.5
2017-Oct-07 10:31N 29°45' W 095°17'0 1.0
2017-Oct-07 10:00N 29°44' W 095°17'2 3.9
2017-Oct-07 09:30N 29°43' W 095°15'2 3.8
2017-Oct-07 09:00N 29°44' W 095°13'3 5.0
2017-Oct-07 08:30N 29°45' W 095°10'3 5.5
2017-Oct-07 08:00N 29°44' W 095°07'3 5.8
2017-Oct-07 07:31N 29°46' W 095°04'3 6.3
2017-Oct-07 07:00N 29°44' W 095°01'4 7.6
2017-Oct-07 06:30N 29°41' W 094°59'611.4
2017-Oct-07 06:00N 29°35' W 094°56'713.6
2017-Oct-07 05:30N 29°30' W 094°52'713.0
2017-Oct-07 05:00N 29°24' W 094°49'  
2017-Oct-02 09:51N 29°23' W 094°53'2 6.9
2017-Oct-02 09:30N 29°22' W 094°50'2 0.1
2017-Oct-01 12:51N 29°24' W 094°49'512.8
2017-Oct-01 12:29N 29°28' W 094°51'612.9
2017-Oct-01 12:00N 29°34' W 094°55'612.6
2017-Oct-01 11:30N 29°39' W 094°58'5 9.8
2017-Oct-01 11:00N 29°43' W 095°01'4 8.0
2017-Oct-01 10:30N 29°46' W 095°05'28 0.7
2017-Sep-29 20:32N 29°22' W 094°48'114.8
2017-Sep-29 20:29N 29°23' W 094°49'714.2
2017-Sep-29 20:01N 29°29' W 094°52'713.5
2017-Sep-29 19:30N 29°35' W 094°56'612.5
2017-Sep-29 19:01N 29°40' W 094°59'4 8.6
2017-Sep-29 18:30N 29°44' W 095°02'3 7.1
2017-Sep-29 18:01N 29°46' W 095°05'  

Dump ship's entire track history